createdAt,value
2023-05-16T00:01:00.933Z,14.70
2023-05-16T00:04:03.443Z,14.65
2023-05-16T00:07:05.505Z,14.63
2023-05-16T00:10:07.922Z,14.62
2023-05-16T00:13:09.348Z,14.64
2023-05-16T00:16:13.886Z,14.52
2023-05-16T00:19:15.351Z,14.53
2023-05-16T00:22:17.025Z,14.49
2023-05-16T00:25:18.540Z,14.43
2023-05-16T00:28:19.918Z,14.42
2023-05-16T00:31:22.067Z,14.44
2023-05-16T00:34:23.468Z,14.53
2023-05-16T00:37:24.995Z,14.56
2023-05-16T00:40:27.749Z,14.52
2023-05-16T00:43:29.184Z,14.49
2023-05-16T00:46:31.273Z,14.49
2023-05-16T00:49:32.686Z,14.22
2023-05-16T00:52:35.488Z,14.28
2023-05-16T00:55:37.555Z,14.23
2023-05-16T00:58:39.120Z,14.03
2023-05-16T01:01:41.394Z,14.23
2023-05-16T01:04:43.606Z,13.98
2023-05-16T01:07:45.053Z,13.98
2023-05-16T01:10:53.213Z,14.01
2023-05-16T01:14:09.129Z,13.78
2023-05-16T01:17:20.166Z,13.64
2023-05-16T01:20:32.795Z,13.58
2023-05-16T01:23:47.021Z,13.70
2023-05-16T01:26:49.929Z,13.54
2023-05-16T01:29:55.564Z,13.57
2023-05-16T01:32:56.934Z,13.52
2023-05-16T01:36:06.536Z,13.49
2023-05-16T01:39:15.230Z,13.42
2023-05-16T01:42:21.035Z,13.34
2023-05-16T01:45:27.963Z,13.30
2023-05-16T01:48:35.911Z,13.23
2023-05-16T01:51:40.957Z,13.06
2023-05-16T01:54:45.375Z,13.13
2023-05-16T01:57:49.785Z,12.88
2023-05-16T02:00:52.843Z,12.85
2023-05-16T02:03:54.461Z,12.77
2023-05-16T02:06:56.687Z,12.92
2023-05-16T02:09:58.084Z,12.83
2023-05-16T02:13:00.032Z,12.81
2023-05-16T02:16:01.518Z,12.64
2023-05-16T02:19:02.814Z,12.62
2023-05-16T02:22:04.610Z,12.70
2023-05-16T02:25:06.915Z,12.68
2023-05-16T02:28:08.876Z,12.75
2023-05-16T02:31:10.374Z,12.70
2023-05-16T02:34:11.741Z,12.52
2023-05-16T02:37:13.431Z,12.47
2023-05-16T02:40:15.137Z,12.46
2023-05-16T02:43:17.199Z,12.44
2023-05-16T02:46:23.304Z,12.44
2023-05-16T02:49:24.690Z,12.33
2023-05-16T02:52:26.188Z,12.61
2023-05-16T02:55:27.916Z,12.52
2023-05-16T02:58:29.902Z,12.46
2023-05-16T03:01:31.325Z,12.50
2023-05-16T03:04:32.815Z,12.48
2023-05-16T03:07:34.260Z,12.52
2023-05-16T03:10:35.627Z,12.52
2023-05-16T03:13:37.678Z,12.50
2023-05-16T03:16:41.046Z,12.64
2023-05-16T03:19:42.373Z,12.59
2023-05-16T03:22:44.589Z,12.54
2023-05-16T03:25:46.009Z,12.46
2023-05-16T03:28:48.179Z,12.46
2023-05-16T03:31:49.678Z,12.39
2023-05-16T03:34:51.860Z,12.38
2023-05-16T03:37:53.439Z,12.65
2023-05-16T03:40:54.723Z,12.55
2023-05-16T03:43:56.781Z,12.33
2023-05-16T03:46:58.223Z,12.34
2023-05-16T03:49:59.614Z,12.35
2023-05-16T03:53:01.019Z,12.34
2023-05-16T03:56:03.314Z,12.50
2023-05-16T03:59:05.378Z,12.48
2023-05-16T04:02:07.405Z,12.33
2023-05-16T04:05:09.722Z,12.43
2023-05-16T04:08:11.221Z,12.54
2023-05-16T04:11:12.525Z,12.55
2023-05-16T04:14:14.906Z,12.45
2023-05-16T04:17:16.188Z,12.38
2023-05-16T04:20:17.640Z,12.40
2023-05-16T04:23:19.076Z,12.42
2023-05-16T04:26:21.780Z,12.30
2023-05-16T04:29:23.841Z,12.33
2023-05-16T04:32:25.318Z,12.30
2023-05-16T04:35:28.052Z,12.49
2023-05-16T04:38:29.656Z,12.30
2023-05-16T04:41:31.136Z,12.26
2023-05-16T04:44:33.823Z,12.37
2023-05-16T04:47:36.026Z,12.16
2023-05-16T04:50:37.452Z,12.08
2023-05-16T04:53:38.717Z,12.14
2023-05-16T04:56:40.094Z,12.29
2023-05-16T04:59:42.314Z,12.26
2023-05-16T05:02:44.022Z,12.32
2023-05-16T05:05:45.744Z,12.40
2023-05-16T05:08:47.256Z,12.41
2023-05-16T05:11:48.568Z,12.27
2023-05-16T05:14:50.714Z,12.34
2023-05-16T05:17:52.257Z,12.32
2023-05-16T05:20:53.892Z,12.39
2023-05-16T05:23:55.194Z,12.39
2023-05-16T05:26:57.143Z,12.37
2023-05-16T05:29:59.178Z,12.43
2023-05-16T05:33:00.648Z,12.50
2023-05-16T05:36:03.973Z,12.54
2023-05-16T05:39:06.201Z,12.61
2023-05-16T05:42:07.784Z,12.70
2023-05-16T05:45:11.091Z,12.66
2023-05-16T05:48:12.701Z,12.24
2023-05-16T05:51:14.356Z,12.28
2023-05-16T05:54:15.751Z,12.40
2023-05-16T05:57:17.112Z,12.46
2023-05-16T06:00:19.589Z,12.57
2023-05-16T06:03:20.952Z,12.49
2023-05-16T06:06:22.437Z,12.65
2023-05-16T06:09:23.745Z,12.56
2023-05-16T06:12:25.140Z,12.65
2023-05-16T06:15:27.351Z,12.69
2023-05-16T06:18:29.199Z,12.50
2023-05-16T06:21:30.544Z,12.38
2023-05-16T06:24:31.904Z,12.31
2023-05-16T06:27:33.367Z,12.39
2023-05-16T06:30:35.532Z,12.66
2023-05-16T06:33:36.810Z,12.75
2023-05-16T06:36:38.352Z,12.80
2023-05-16T06:39:39.653Z,12.58
2023-05-16T06:42:41.129Z,12.60
2023-05-16T06:45:44.436Z,12.75
2023-05-16T06:48:45.765Z,12.61
2023-05-16T06:51:47.091Z,12.66
2023-05-16T06:54:48.454Z,12.75
2023-05-16T06:57:49.829Z,12.96
2023-05-16T07:00:51.960Z,12.84
2023-05-16T07:03:53.672Z,12.98
2023-05-16T07:06:55.243Z,13.06
2023-05-16T07:09:56.564Z,12.97
2023-05-16T07:12:58.091Z,13.03
2023-05-16T07:16:00.286Z,13.17
2023-05-16T07:19:01.912Z,13.26
2023-05-16T07:22:03.658Z,13.24
2023-05-16T07:25:06.155Z,13.41
2023-05-16T07:28:07.590Z,13.57
2023-05-16T07:31:09.673Z,13.77
2023-05-16T07:34:11.474Z,13.69
2023-05-16T07:37:13.186Z,13.54
2023-05-16T07:40:14.567Z,13.34
2023-05-16T07:43:16.026Z,13.28
2023-05-16T07:46:18.043Z,13.25
2023-05-16T07:49:19.504Z,13.40
2023-05-16T07:52:20.844Z,13.14
2023-05-16T07:55:22.754Z,13.31
2023-05-16T07:58:24.285Z,13.34
2023-05-16T08:01:26.397Z,13.51
2023-05-16T08:04:28.466Z,13.63
2023-05-16T08:07:30.853Z,13.56
2023-05-16T08:10:32.427Z,13.77
2023-05-16T08:13:33.932Z,13.74
2023-05-16T08:16:36.279Z,13.92
2023-05-16T08:19:37.838Z,13.94
2023-05-16T08:22:39.336Z,14.04
2023-05-16T08:25:40.680Z,13.83
2023-05-16T08:28:42.666Z,13.69
2023-05-16T08:31:44.776Z,13.88
2023-05-16T08:34:46.316Z,13.63
2023-05-16T08:37:47.861Z,13.82
2023-05-16T08:40:49.240Z,13.87
2023-05-16T08:43:50.847Z,13.95
2023-05-16T08:46:54.390Z,13.89
2023-05-16T08:49:57.822Z,13.84
2023-05-16T08:53:06.592Z,13.91
2023-05-16T08:56:09.605Z,14.06
2023-05-16T08:59:11.913Z,14.07
2023-05-16T09:02:14.106Z,14.21
2023-05-16T09:05:16.855Z,14.34
2023-05-16T09:08:19.607Z,14.26
2023-05-16T09:11:21.295Z,14.19
2023-05-16T09:14:22.835Z,14.32
2023-05-16T09:17:38.684Z,14.36
2023-05-16T09:20:46.381Z,14.75
2023-05-16T09:23:49.172Z,14.94
2023-05-16T09:26:50.647Z,14.73
2023-05-16T09:29:51.992Z,14.69
2023-05-16T09:32:54.184Z,14.60
2023-05-16T09:35:57.111Z,14.77
2023-05-16T09:38:58.687Z,14.43
2023-05-16T09:42:00.138Z,14.44
2023-05-16T09:45:04.671Z,14.53
2023-05-16T09:48:08.377Z,14.41
2023-05-16T09:51:12.409Z,14.23
2023-05-16T09:54:13.936Z,14.24
2023-05-16T09:57:18.321Z,14.50
2023-05-16T10:00:20.099Z,14.65
2023-05-16T10:03:23.024Z,14.66
2023-05-16T10:06:25.658Z,14.52
2023-05-16T10:09:28.142Z,14.42
2023-05-16T10:12:31.421Z,14.40
2023-05-16T10:15:33.938Z,14.33
2023-05-16T10:18:37.852Z,14.35
2023-05-16T10:21:45.352Z,14.37
2023-05-16T10:24:51.650Z,14.27
2023-05-16T10:27:54.636Z,14.04
2023-05-16T10:30:56.895Z,14.10
2023-05-16T10:33:59.594Z,14.14
2023-05-16T10:37:01.807Z,13.91
2023-05-16T10:40:05.116Z,13.91
2023-05-16T10:43:08.132Z,14.11
2023-05-16T10:46:11.044Z,14.35
2023-05-16T10:49:24.041Z,14.65
2023-05-16T10:52:33.366Z,14.89
2023-05-16T10:55:36.062Z,15.38
2023-05-16T10:58:44.711Z,15.64
2023-05-16T11:01:52.592Z,16.08
2023-05-16T11:04:56.321Z,16.02
2023-05-16T11:08:04.263Z,16.01
2023-05-16T11:11:38.967Z,15.60
2023-05-16T11:14:42.729Z,15.61
2023-05-16T11:17:46.091Z,15.68
2023-05-16T11:20:52.103Z,16.16
2023-05-16T11:24:27.019Z,16.78
2023-05-16T11:27:30.245Z,16.91
2023-05-16T11:30:32.423Z,16.91
2023-05-16T11:33:35.622Z,16.70
2023-05-16T11:36:39.740Z,16.54
2023-05-16T11:39:41.333Z,16.15
2023-05-16T11:42:44.653Z,15.81
2023-05-16T11:45:46.740Z,16.12
2023-05-16T11:48:48.627Z,16.33
2023-05-16T11:51:53.814Z,16.51
2023-05-16T11:54:57.289Z,16.64
2023-05-16T11:57:59.245Z,16.99
2023-05-16T12:01:04.244Z,17.20
2023-05-16T12:04:09.096Z,17.71
2023-05-16T12:07:11.259Z,18.70
2023-05-16T12:10:14.328Z,18.65
2023-05-16T12:13:16.767Z,19.04
2023-05-16T12:16:18.725Z,18.59
2023-05-16T12:19:21.337Z,18.60
2023-05-16T12:22:25.546Z,18.14
2023-05-16T12:25:29.221Z,18.08
2023-05-16T12:28:33.349Z,18.03
2023-05-16T12:31:37.326Z,18.03
2023-05-16T12:34:38.718Z,18.94
2023-05-16T12:37:43.453Z,19.49
2023-05-16T12:40:46.100Z,20.15
2023-05-16T12:43:47.861Z,20.42
2023-05-16T12:46:51.226Z,20.75
2023-05-16T12:49:53.641Z,20.96
2023-05-16T12:53:00.910Z,20.88
2023-05-16T12:56:02.327Z,20.52
2023-05-16T12:59:03.642Z,20.60
2023-05-16T13:02:05.434Z,20.04
2023-05-16T13:05:07.444Z,20.38
2023-05-16T13:08:09.458Z,20.33
2023-05-16T13:11:10.835Z,20.63
2023-05-16T13:14:12.238Z,20.49
2023-05-16T13:17:13.556Z,20.46
2023-05-16T13:20:15.530Z,19.73
2023-05-16T13:23:17.755Z,19.73
2023-05-16T13:26:19.088Z,19.84
2023-05-16T13:29:20.659Z,19.63
2023-05-16T13:32:22.393Z,19.79
2023-05-16T13:35:23.730Z,19.29
2023-05-16T13:38:25.816Z,19.79
2023-05-16T13:41:27.143Z,20.29
2023-05-16T13:44:28.633Z,19.96
2023-05-16T13:47:30.468Z,19.53
2023-05-16T13:50:33.824Z,19.59
2023-05-16T13:53:36.286Z,20.07
2023-05-16T13:56:37.756Z,20.10
2023-05-16T14:00:05.663Z,19.80
2023-05-16T14:03:00.838Z,19.73
2023-05-16T14:06:02.236Z,19.64
2023-05-16T14:09:04.477Z,19.40
2023-05-16T14:12:07.079Z,19.37
2023-05-16T14:15:09.223Z,19.92
2023-05-16T14:18:10.782Z,19.60
2023-05-16T14:21:12.638Z,19.54
2023-05-16T14:24:14.830Z,19.49
2023-05-16T14:27:16.361Z,19.63
2023-05-16T14:30:17.901Z,19.62
2023-05-16T14:33:19.351Z,19.23
2023-05-16T14:36:20.801Z,19.00
2023-05-16T14:39:22.904Z,18.79
2023-05-16T14:42:24.366Z,18.83
2023-05-16T14:45:25.996Z,19.16
2023-05-16T14:48:27.677Z,18.99
2023-05-16T14:51:29.174Z,19.26
2023-05-16T14:54:31.300Z,18.91
2023-05-16T14:57:32.601Z,18.92
2023-05-16T15:00:33.965Z,19.37
2023-05-16T15:03:53.747Z,19.52
2023-05-16T15:06:56.512Z,19.67
2023-05-16T15:09:58.618Z,19.67
2023-05-16T15:12:59.980Z,19.04
2023-05-16T15:16:01.386Z,18.78
2023-05-16T15:19:03.098Z,18.71
2023-05-16T15:22:07.055Z,18.79
2023-05-16T15:25:10.344Z,18.86
2023-05-16T15:28:11.681Z,18.71
2023-05-16T15:31:13.488Z,18.73
2023-05-16T15:34:15.019Z,19.01
2023-05-16T15:37:17.184Z,19.04
2023-05-16T15:40:22.296Z,18.77
2023-05-16T15:43:26.357Z,18.73
2023-05-16T15:46:29.900Z,18.74
2023-05-16T15:49:31.401Z,18.89
2023-05-16T15:52:35.184Z,18.69
2023-05-16T15:55:38.478Z,18.58
2023-05-16T15:58:39.862Z,18.72
2023-05-16T16:01:41.397Z,18.53
2023-05-16T16:04:42.851Z,18.50
2023-05-16T16:07:44.635Z,18.57
2023-05-16T16:10:46.994Z,18.41
2023-05-16T16:13:48.718Z,18.21
2023-05-16T16:16:50.477Z,18.44
2023-05-16T16:19:52.190Z,18.18
2023-05-16T16:22:53.733Z,18.16
2023-05-16T16:25:55.842Z,17.81
2023-05-16T16:28:57.188Z,18.04
2023-05-16T16:31:58.830Z,17.96
2023-05-16T16:35:00.937Z,17.85
2023-05-16T16:38:07.105Z,17.73
2023-05-16T16:41:10.388Z,17.65
2023-05-16T16:44:13.133Z,17.83
2023-05-16T16:47:14.593Z,17.77
2023-05-16T16:50:16.032Z,17.84
2023-05-16T16:53:18.052Z,17.92
2023-05-16T16:56:20.907Z,17.79
2023-05-16T16:59:22.255Z,17.77
2023-05-16T17:02:23.640Z,17.84
2023-05-16T17:05:25.383Z,17.65
2023-05-16T17:08:26.886Z,17.40
2023-05-16T17:11:29.079Z,16.97
2023-05-16T17:14:30.783Z,16.92
2023-05-16T17:17:32.115Z,16.89
2023-05-16T17:20:33.709Z,16.64
2023-05-16T17:23:35.063Z,16.70
2023-05-16T17:26:37.158Z,16.54
2023-05-16T17:29:38.668Z,16.53
2023-05-16T17:32:40.100Z,16.59
2023-05-16T17:35:41.524Z,16.45
2023-05-16T17:38:42.843Z,16.36
2023-05-16T17:41:45.161Z,16.32
2023-05-16T17:44:46.739Z,16.29
2023-05-16T17:47:48.452Z,16.31
2023-05-16T17:50:49.863Z,16.02
2023-05-16T17:53:51.967Z,15.71
2023-05-16T17:56:54.496Z,15.80
2023-05-16T17:59:56.010Z,15.82
2023-05-16T18:02:57.577Z,15.79
2023-05-16T18:05:59.226Z,15.78
2023-05-16T18:09:01.121Z,15.82
2023-05-16T18:12:03.816Z,15.57
2023-05-16T18:15:06.422Z,15.62
2023-05-16T18:18:08.032Z,15.43
2023-05-16T18:21:09.492Z,15.27
2023-05-16T18:24:12.434Z,15.19
2023-05-16T18:27:15.401Z,15.03
2023-05-16T18:30:16.880Z,15.00
2023-05-16T18:33:18.296Z,14.80
2023-05-16T18:36:19.780Z,14.83
2023-05-16T18:39:21.310Z,14.69
2023-05-16T18:42:24.922Z,14.68
2023-05-16T18:45:26.585Z,14.52
2023-05-16T18:48:28.215Z,14.45
2023-05-16T18:51:30.150Z,14.33
2023-05-16T18:54:31.451Z,14.36
2023-05-16T18:57:34.125Z,14.44
2023-05-16T19:00:35.504Z,14.29
2023-05-16T19:03:36.969Z,14.04
2023-05-16T19:06:38.458Z,13.88
2023-05-16T19:09:39.768Z,13.84
2023-05-16T19:12:46.011Z,13.78
2023-05-16T19:15:47.340Z,13.57
2023-05-16T19:18:49.430Z,13.59
2023-05-16T19:21:51.130Z,13.54
2023-05-16T19:24:52.580Z,13.48
2023-05-16T19:27:54.751Z,13.52
2023-05-16T19:30:56.388Z,13.36
2023-05-16T19:33:57.855Z,13.22
2023-05-16T19:37:03.198Z,13.28
2023-05-16T19:40:05.881Z,13.12
2023-05-16T19:43:08.567Z,13.09
2023-05-16T19:46:10.586Z,13.11
2023-05-16T19:49:12.249Z,13.05
2023-05-16T19:52:14.246Z,12.88
2023-05-16T19:55:16.075Z,12.80
2023-05-16T19:58:18.508Z,12.83
2023-05-16T20:01:20.228Z,12.67
2023-05-16T20:04:22.150Z,12.66
2023-05-16T20:07:23.636Z,12.66
2023-05-16T20:10:24.969Z,12.60
2023-05-16T20:13:27.094Z,12.47
2023-05-16T20:16:28.460Z,12.59
2023-05-16T20:19:29.959Z,12.37
2023-05-16T20:22:31.457Z,12.22
2023-05-16T20:25:32.811Z,12.18
2023-05-16T20:28:34.942Z,12.02
2023-05-16T20:31:36.311Z,12.01
2023-05-16T20:34:40.287Z,12.02
2023-05-16T20:37:42.907Z,11.98
2023-05-16T20:40:44.373Z,11.93
2023-05-16T20:43:46.508Z,11.82
2023-05-16T20:46:47.855Z,11.77
2023-05-16T20:49:49.304Z,11.75
2023-05-16T20:52:50.701Z,11.61
2023-05-16T20:55:52.224Z,11.48
2023-05-16T20:58:54.443Z,11.55
2023-05-16T21:01:56.679Z,11.44
2023-05-16T21:05:02.234Z,11.37
2023-05-16T21:08:11.759Z,11.31
2023-05-16T21:11:13.226Z,11.27
2023-05-16T21:14:15.436Z,11.28
2023-05-16T21:17:16.852Z,11.22
2023-05-16T21:20:18.433Z,11.20
2023-05-16T21:23:20.178Z,11.13
2023-05-16T21:26:21.581Z,11.03
2023-05-16T21:29:23.682Z,10.99
2023-05-16T21:32:27.522Z,11.00
2023-05-16T21:35:29.331Z,10.92
2023-05-16T21:38:30.926Z,10.84
2023-05-16T21:41:32.402Z,10.84
2023-05-16T21:44:34.551Z,10.85
2023-05-16T21:47:36.085Z,10.79
2023-05-16T21:50:37.647Z,10.72
2023-05-16T21:53:39.004Z,10.63
2023-05-16T21:56:40.525Z,10.59
2023-05-16T21:59:42.466Z,10.53
2023-05-16T22:02:44.477Z,10.56
2023-05-16T22:05:46.387Z,10.51
2023-05-16T22:08:47.832Z,10.52
2023-05-16T22:11:49.199Z,10.46
2023-05-16T22:14:51.352Z,10.42
2023-05-16T22:17:52.736Z,10.42
2023-05-16T22:20:54.223Z,10.39
2023-05-16T22:23:55.602Z,10.38
2023-05-16T22:26:57.047Z,10.34
2023-05-16T22:29:59.039Z,10.31
2023-05-16T22:33:00.730Z,10.30
2023-05-16T22:36:02.644Z,10.26
2023-05-16T22:39:04.141Z,10.26
2023-05-16T22:42:06.111Z,10.15
2023-05-16T22:45:08.825Z,10.04
2023-05-16T22:48:10.435Z,10.05
2023-05-16T22:51:11.926Z,10.04
2023-05-16T22:54:13.411Z,10.00
2023-05-16T22:57:14.815Z,9.88
2023-05-16T23:00:22.089Z,9.85
2023-05-16T23:03:23.622Z,9.85
2023-05-16T23:06:25.161Z,9.87
2023-05-16T23:09:26.685Z,9.86
2023-05-16T23:12:28.118Z,9.83
2023-05-16T23:15:30.469Z,9.78
2023-05-16T23:18:32.156Z,9.74
2023-05-16T23:21:33.762Z,9.74
2023-05-16T23:24:35.076Z,9.71
2023-05-16T23:27:36.523Z,9.68
2023-05-16T23:30:38.641Z,9.69
2023-05-16T23:33:39.968Z,9.58
2023-05-16T23:36:41.306Z,9.49
2023-05-16T23:39:42.767Z,9.50
2023-05-16T23:42:44.362Z,9.49
2023-05-16T23:45:46.632Z,9.52
2023-05-16T23:48:48.194Z,9.36
2023-05-16T23:51:57.259Z,9.39
2023-05-16T23:54:59.625Z,9.34
2023-05-16T23:58:01.073Z,9.37
